Time;durP1;ratioP1;P1;durP2;ratioP2;P2;SDS_P1;SDS_P2;PMS_P1;PMS_P2;Temp;Humidity;BMP_temperature;BMP_pressure;BME280_temperature;BME280_humidity;BME280_pressure;Samples;Min_cycle;Max_cycle;Signal;HPM_P1;HPM_P2
2022/08/02 00:01:32;;;;;;;5.63;3.50;;;;;;;19.72;55.21;99697.97;4908165;29;20024;-60
2022/08/02 00:03:58;;;;;;;6.30;3.78;;;;;;;19.63;55.87;99709.03;4907956;29;20029;-60
2022/08/02 00:06:24;;;;;;;4.32;3.67;;;;;;;19.55;55.88;99709.47;4906394;29;20036;-60
2022/08/02 00:08:49;;;;;;;5.75;3.85;;;;;;;19.44;56.47;99704.03;4908034;29;20398;-60
2022/08/02 00:11:15;;;;;;;5.28;3.45;;;;;;;19.14;57.64;99703.06;4908175;29;20041;-60
2022/08/02 00:13:41;;;;;;;4.00;3.47;;;;;;;19.11;57.58;99697.97;4907223;29;20031;-60
2022/08/02 00:16:06;;;;;;;5.28;3.78;;;;;;;19.23;56.95;99701.69;4893870;29;20042;-60
2022/08/02 00:18:32;;;;;;;4.82;3.50;;;;;;;19.30;57.11;99703.00;4906807;29;20032;-60
2022/08/02 00:20:57;;;;;;;4.82;3.88;;;;;;;19.33;56.99;99711.66;4906956;29;20024;-60
2022/08/02 00:23:23;;;;;;;5.65;3.60;;;;;;;19.42;57.72;99698.00;4905339;29;20032;-61
2022/08/02 00:25:49;;;;;;;4.43;3.70;;;;;;;19.44;57.41;99714.53;4906883;29;20036;-61
2022/08/02 00:28:14;;;;;;;4.03;3.60;;;;;;;19.37;58.10;99708.78;4907975;29;20033;-61
2022/08/02 00:30:40;;;;;;;8.57;3.53;;;;;;;19.29;58.95;99711.81;4907613;29;20037;-60
2022/08/02 00:33:07;;;;;;;5.00;3.22;;;;;;;19.28;58.31;99701.41;4922352;29;20066;-60
2022/08/02 00:35:35;;;;;;;4.80;3.50;;;;;;;19.15;59.69;99696.00;4907475;29;20028;-60
2022/08/02 00:38:02;;;;;;;4.32;3.50;;;;;;;19.18;59.06;99703.72;4907453;29;20036;-60
2022/08/02 00:40:28;;;;;;;9.63;3.90;;;;;;;19.12;59.70;99699.66;4907536;29;20040;-60
2022/08/02 00:43:08;;;;;;;9.70;3.35;;;;;;;19.08;60.60;99703.41;4922184;29;20059;-60
2022/08/02 00:45:36;;;;;;;6.57;3.40;;;;;;;19.01;60.10;99709.94;4910709;29;20020;-60
2022/08/02 00:48:03;;;;;;;6.65;3.90;;;;;;;18.97;59.69;99708.41;4915475;29;20068;-60
2022/08/02 00:50:29;;;;;;;7.70;3.83;;;;;;;18.94;59.48;99698.06;4907604;29;20028;-60
2022/08/02 00:52:54;;;;;;;5.30;3.70;;;;;;;18.96;59.76;99697.06;4922074;29;20084;-60
2022/08/02 00:55:20;;;;;;;4.70;3.45;;;;;;;18.92;59.98;99705.19;4918887;29;20032;-59
2022/08/02 00:57:46;;;;;;;5.03;4.18;;;;;;;18.89;60.44;99708.81;4907570;29;20242;-59
2022/08/02 01:00:13;;;;;;;4.20;3.75;;;;;;;18.91;60.35;99703.50;4907396;29;20068;-59
2022/08/02 01:02:39;;;;;;;5.00;3.78;;;;;;;18.84;61.65;99695.09;4905019;29;20055;-59
2022/08/02 01:05:05;;;;;;;5.13;3.58;;;;;;;18.90;60.70;99699.19;4912150;29;20333;-59
2022/08/02 01:07:30;;;;;;;5.10;3.60;;;;;;;18.85;60.91;99702.03;4920041;29;20032;-60
2022/08/02 01:09:56;;;;;;;7.22;3.80;;;;;;;18.78;61.44;99701.53;4915510;29;20323;-60
2022/08/02 01:12:22;;;;;;;6.88;4.20;;;;;;;18.78;61.89;99704.16;4916853;29;20028;-60
2022/08/02 01:14:54;;;;;;;6.40;3.60;;;;;;;18.80;61.97;99710.16;4905873;29;20351;-61
2022/08/02 01:17:41;;;;;;;5.22;4.00;;;;;;;18.80;61.57;99701.44;4905115;29;20037;-61
2022/08/02 01:20:17;;;;;;;6.00;3.85;;;;;;;18.74;62.08;99705.25;4906119;29;20032;-60
2022/08/02 01:23:00;;;;;;;5.72;3.70;;;;;;;18.77;61.91;99694.59;4906358;29;20031;-61
2022/08/02 01:25:48;;;;;;;7.72;4.00;;;;;;;18.75;61.81;99701.69;4906601;29;20055;-61
2022/08/02 01:28:35;;;;;;;6.07;4.55;;;;;;;18.72;61.74;99701.84;4886671;29;20104;-58
2022/08/02 01:31:13;;;;;;;5.50;4.05;;;;;;;18.44;62.46;99652.69;4905654;29;20048;-59
2022/08/02 01:33:46;;;;;;;5.03;3.90;;;;;;;18.68;62.04;99700.31;4906395;29;20029;-59
2022/08/02 01:36:14;;;;;;;5.10;3.95;;;;;;;18.34;62.86;99648.88;4906291;29;20058;-60
2022/08/02 01:38:44;;;;;;;7.20;4.40;;;;;;;18.29;62.92;99649.97;4909492;29;20036;-61
2022/08/02 01:41:17;;;;;;;6.75;4.10;;;;;;;18.48;62.91;99685.69;4909392;29;20032;-60
2022/08/02 01:43:44;;;;;;;7.45;5.18;;;;;;;18.53;62.19;99720.38;4908809;29;20170;-61
2022/08/02 01:46:12;;;;;;;7.15;4.45;;;;;;;18.57;62.17;99705.31;4919076;29;20311;-60
2022/08/02 01:48:40;;;;;;;4.60;4.00;;;;;;;18.54;63.00;99695.00;4913284;29;20036;-59
2022/08/02 01:51:07;;;;;;;9.57;5.28;;;;;;;18.60;62.05;99707.78;4909700;29;20516;-60
2022/08/02 01:53:35;;;;;;;7.00;4.47;;;;;;;18.58;63.05;99704.38;4909752;29;20329;-61
2022/08/02 01:56:03;;;;;;;5.95;3.97;;;;;;;18.57;62.58;99702.69;4909687;29;20550;-60
2022/08/02 01:58:33;;;;;;;8.40;4.65;;;;;;;18.25;63.24;99658.09;4909682;29;20028;-60
2022/08/02 02:01:00;;;;;;;7.63;3.88;;;;;;;18.55;62.94;99712.44;4908298;29;20029;-60
2022/08/02 02:03:28;;;;;;;5.53;4.00;;;;;;;18.56;63.67;99716.75;4909839;29;20029;-60
2022/08/02 02:05:56;;;;;;;8.75;4.13;;;;;;;18.51;62.81;99724.00;4909390;29;20388;-60
2022/08/02 02:08:31;;;;;;;9.82;4.80;;;;;;;18.50;63.61;99702.19;4908438;29;20028;-60
2022/08/02 02:10:57;;;;;;;5.18;4.32;;;;;;;18.51;63.85;99729.25;4909317;29;20371;-60
2022/08/02 02:13:25;;;;;;;9.65;4.90;;;;;;;18.51;64.55;99724.84;4909232;29;20064;-60
2022/08/02 02:15:53;;;;;;;5.25;4.25;;;;;;;18.48;64.53;99716.31;4892531;29;20036;-60
2022/08/02 02:18:28;;;;;;;4.88;4.30;;;;;;;18.46;64.17;99704.13;4903039;29;20256;-60
2022/08/02 02:20:54;;;;;;;6.88;4.30;;;;;;;18.46;64.80;99714.59;4909155;29;20056;-61
2022/08/02 02:23:20;;;;;;;7.10;4.80;;;;;;;18.44;65.00;99705.13;4909363;29;20383;-60
2022/08/02 02:25:46;;;;;;;6.18;4.00;;;;;;;18.46;65.43;99717.22;4908218;29;20056;-60
2022/08/02 02:28:23;;;;;;;7.30;4.22;;;;;;;18.45;64.74;99720.81;4909073;29;20031;-60
2022/08/02 02:30:54;;;;;;;11.48;4.85;;;;;;;18.20;65.10;99681.06;4908934;29;20262;-60
2022/08/02 02:33:21;;;;;;;11.52;4.85;;;;;;;18.48;64.26;99725.00;4909181;29;20074;-61
2022/08/02 02:35:49;;;;;;;6.28;4.22;;;;;;;18.09;65.12;99676.41;4909147;29;20021;-60
2022/08/02 02:38:17;;;;;;;6.22;4.22;;;;;;;18.53;64.76;99732.66;4908907;29;20274;-60
2022/08/02 02:40:46;;;;;;;6.50;4.93;;;;;;;18.28;64.36;99676.25;4909068;29;20063;-60
2022/08/02 02:43:12;;;;;;;5.45;4.47;;;;;;;18.61;63.75;99725.19;4890260;29;20048;-60
2022/08/02 02:45:40;;;;;;;6.85;4.50;;;;;;;18.28;64.94;99652.66;4909382;29;20075;-60
2022/08/02 02:48:07;;;;;;;6.18;4.20;;;;;;;18.66;64.43;99707.44;4917140;29;20074;-60
2022/08/02 02:50:35;;;;;;;6.88;5.10;;;;;;;18.68;63.83;99720.47;4908288;29;20063;-60
2022/08/02 02:53:02;;;;;;;8.05;4.60;;;;;;;18.77;63.86;99717.38;4908764;29;20042;-60
2022/08/02 02:55:28;;;;;;;7.13;5.32;;;;;;;18.83;64.33;99718.81;4921038;29;20035;-60
2022/08/02 02:57:55;;;;;;;7.50;3.97;;;;;;;18.83;64.24;99716.19;4910804;29;20028;-60
2022/08/02 03:01:26;;;;;;;6.65;4.40;;;;;;;18.86;64.32;99716.00;4908336;29;20039;-60
2022/08/02 03:03:08;;;;;;;5.95;4.25;;;;;;;18.86;64.86;99718.63;4908298;29;20044;-59
2022/08/02 03:05:34;;;;;;;8.98;4.78;;;;;;;18.89;63.90;99723.75;4908558;29;20052;-60
2022/08/02 03:08:00;;;;;;;5.18;4.45;;;;;;;18.91;64.32;99722.72;4908231;29;20099;-60
2022/08/02 03:10:26;;;;;;;5.15;4.18;;;;;;;18.96;64.92;99717.22;4908367;29;20036;-60
2022/08/02 03:12:52;;;;;;;10.73;5.20;;;;;;;18.94;64.44;99716.44;4908219;29;20076;-60
2022/08/02 03:15:20;;;;;;;9.20;5.00;;;;;;;18.97;63.61;99722.38;4908278;29;20036;-60
2022/08/02 03:17:46;;;;;;;6.45;5.00;;;;;;;19.00;63.39;99716.13;4908313;29;20325;-60
2022/08/02 03:20:16;;;;;;;8.23;5.57;;;;;;;18.88;63.36;99712.38;4908326;29;20044;-60
2022/08/02 03:22:43;;;;;;;6.90;5.43;;;;;;;19.00;62.88;99715.25;4907118;29;20080;-60
2022/08/02 03:25:11;;;;;;;7.57;5.50;;;;;;;18.71;62.36;99667.84;4906829;29;20395;-59
2022/08/02 03:27:38;;;;;;;8.30;5.22;;;;;;;19.14;62.51;99713.56;4907205;29;20033;-60
2022/08/02 03:30:05;;;;;;;8.32;4.82;;;;;;;19.21;63.28;99718.44;4907093;29;20056;-60
2022/08/02 03:32:33;;;;;;;8.48;5.05;;;;;;;19.16;62.54;99710.84;4907923;29;20036;-59
2022/08/02 03:34:59;;;;;;;8.02;5.32;;;;;;;19.34;63.31;99718.59;4908116;29;20032;-59
2022/08/02 03:37:26;;;;;;;7.07;4.80;;;;;;;19.41;62.34;99715.53;4907945;29;20075;-59
2022/08/02 03:39:53;;;;;;;8.68;4.80;;;;;;;19.34;61.86;99716.84;4907560;29;20107;-60
2022/08/02 03:42:20;;;;;;;5.45;4.70;;;;;;;19.14;61.92;99665.47;4908144;29;20032;-59
2022/08/02 03:44:47;;;;;;;7.15;4.78;;;;;;;19.19;61.51;99665.19;4907169;29;20021;-60
2022/08/02 03:47:14;;;;;;;12.10;4.93;;;;;;;19.73;61.47;99717.22;4922030;29;20352;-60
2022/08/02 03:49:41;;;;;;;6.30;4.10;;;;;;;19.71;60.67;99714.69;4908215;29;20302;-60
2022/08/02 03:52:07;;;;;;;9.75;5.30;;;;;;;19.82;60.96;99714.94;4906542;29;20036;-60
2022/08/02 03:54:33;;;;;;;7.43;4.53;;;;;;;19.88;61.29;99718.97;4911929;29;20335;-60
2022/08/02 03:56:59;;;;;;;7.88;4.78;;;;;;;20.00;61.17;99727.91;4917070;29;20032;-59
2022/08/02 03:59:24;;;;;;;9.38;4.88;;;;;;;19.94;60.64;99715.97;4907887;29;20270;-59
2022/08/02 04:01:50;;;;;;;8.55;5.05;;;;;;;20.07;60.78;99720.50;4907940;29;20108;-60
2022/08/02 04:04:15;;;;;;;7.63;4.65;;;;;;;20.09;60.43;99718.63;4907482;29;20324;-59
2022/08/02 04:06:41;;;;;;;8.38;4.20;;;;;;;20.22;60.50;99722.19;4905965;29;20037;-59
2022/08/02 04:09:06;;;;;;;5.93;3.92;;;;;;;20.18;60.38;99721.53;4907743;29;20514;-60
2022/08/02 04:11:32;;;;;;;6.93;4.80;;;;;;;20.24;60.39;99727.38;4907182;29;20037;-60
2022/08/02 04:14:06;;;;;;;7.50;4.72;;;;;;;19.99;59.59;99684.13;4922448;29;20032;-60
2022/08/02 04:16:56;;;;;;;7.28;4.70;;;;;;;20.36;60.09;99729.22;4922285;29;20072;-60
2022/08/02 04:19:30;;;;;;;6.43;4.60;;;;;;;20.32;59.97;99732.97;4889099;29;20043;-59
2022/08/02 04:21:58;;;;;;;5.65;4.47;;;;;;;20.40;60.02;99730.72;4905224;29;20386;-59
2022/08/02 04:24:27;;;;;;;8.65;5.00;;;;;;;20.18;60.13;99676.81;4907655;29;20028;-60
2022/08/02 04:26:55;;;;;;;9.20;4.50;;;;;;;20.48;59.95;99723.22;4907476;29;20091;-59
2022/08/02 04:29:22;;;;;;;8.30;4.38;;;;;;;20.43;59.57;99713.91;4907458;29;20028;-59
2022/08/02 04:31:49;;;;;;;8.70;4.25;;;;;;;20.63;59.36;99718.78;4907741;29;20055;-60
2022/08/02 04:34:15;;;;;;;5.75;4.47;;;;;;;20.53;59.15;99720.28;4907468;29;20132;-60
2022/08/02 04:36:40;;;;;;;5.38;4.15;;;;;;;20.72;59.04;99724.44;4907221;29;20040;-60
2022/08/02 04:39:06;;;;;;;6.53;4.20;;;;;;;20.68;58.83;99723.81;4907311;29;20206;-59
2022/08/02 04:41:43;;;;;;;6.68;4.32;;;;;;;20.47;58.61;99679.41;4906348;29;20241;-60
2022/08/02 04:44:08;;;;;;;7.25;4.60;;;;;;;20.70;58.56;99721.91;4907028;29;20100;-59
2022/08/02 04:46:38;;;;;;;9.90;4.82;;;;;;;20.76;58.41;99718.03;4909509;29;20036;-59
2022/08/02 04:49:04;;;;;;;6.72;4.32;;;;;;;20.93;58.36;99723.06;4906636;29;20132;-59
2022/08/02 04:51:30;;;;;;;10.70;4.72;;;;;;;21.04;58.50;99728.50;4907270;29;20028;-59
2022/08/02 04:53:55;;;;;;;4.43;3.72;;;;;;;21.16;58.78;99728.63;4906929;29;20245;-60
2022/08/02 04:56:21;;;;;;;9.55;4.30;;;;;;;21.17;58.40;99733.81;4906248;29;20028;-60
2022/08/02 04:58:46;;;;;;;7.82;4.72;;;;;;;21.16;57.84;99726.00;4921873;29;20043;-60
2022/08/02 05:01:12;;;;;;;5.38;3.83;;;;;;;21.36;57.64;99725.56;4906951;29;20093;-61
2022/08/02 05:03:37;;;;;;;6.10;4.07;;;;;;;21.36;57.40;99727.34;4907091;29;20035;-60
2022/08/02 05:06:03;;;;;;;8.05;4.25;;;;;;;21.47;57.11;99731.91;4906629;29;20040;-60
2022/08/02 05:08:29;;;;;;;8.80;4.28;;;;;;;21.70;56.90;99733.03;4906990;29;20088;-60
2022/08/02 05:10:54;;;;;;;4.90;4.40;;;;;;;21.74;55.86;99723.97;4907041;29;20033;-60
2022/08/02 05:13:20;;;;;;;7.30;4.47;;;;;;;21.98;55.62;99726.75;4910209;29;20029;-61
2022/08/02 05:15:50;;;;;;;6.93;4.47;;;;;;;22.03;54.49;99719.38;4903993;29;20036;-60
2022/08/02 05:18:16;;;;;;;7.22;4.97;;;;;;;22.30;54.58;99717.53;4910789;29;20029;-60
2022/08/02 05:20:42;;;;;;;6.97;4.10;;;;;;;22.36;54.53;99719.78;4911029;29;20352;-61
2022/08/02 05:23:07;;;;;;;8.75;4.68;;;;;;;22.44;54.25;99728.00;4910681;29;20032;-59
2022/08/02 05:25:33;;;;;;;10.48;4.15;;;;;;;22.56;54.27;99732.44;4910884;29;20033;-60
2022/08/02 05:27:58;;;;;;;6.50;4.07;;;;;;;22.44;54.29;99722.72;4910819;29;20049;-60
2022/08/02 05:30:24;;;;;;;7.32;4.28;;;;;;;22.31;53.97;99722.72;4909637;29;20048;-60
2022/08/02 05:32:51;;;;;;;6.88;4.68;;;;;;;22.27;54.87;99725.69;4910632;29;20088;-60
2022/08/02 05:35:21;;;;;;;10.40;4.88;;;;;;;22.27;54.74;99715.13;4910689;29;20025;-60
2022/08/02 05:37:48;;;;;;;6.85;4.55;;;;;;;21.95;54.83;99715.53;4909922;29;20020;-61
2022/08/02 05:40:15;;;;;;;8.45;4.60;;;;;;;22.18;54.90;99724.53;4924111;29;20502;-60
2022/08/02 05:42:41;;;;;;;10.13;4.25;;;;;;;22.11;55.26;99716.19;4909992;29;20276;-60
2022/08/02 05:45:08;;;;;;;5.60;3.65;;;;;;;22.26;54.86;99716.06;4910516;29;20153;-59
2022/08/02 05:47:34;;;;;;;6.22;3.92;;;;;;;22.45;54.87;99719.16;4923706;29;20057;-58
2022/08/02 05:49:59;;;;;;;6.68;4.10;;;;;;;22.46;55.22;99712.94;4909992;29;20063;-60
2022/08/02 05:52:30;;;;;;;6.03;3.83;;;;;;;22.54;55.43;99713.19;4908720;29;20032;-59
2022/08/02 05:55:12;;;;;;;5.63;3.85;;;;;;;22.41;54.26;99671.00;4918113;29;20038;-60
2022/08/02 05:58:13;;;;;;;7.95;4.40;;;;;;;22.64;55.07;99707.28;4915957;29;20036;-60
2022/08/02 06:00:40;;;;;;;6.90;3.85;;;;;;;22.66;53.98;99700.09;4907945;29;20049;-60
2022/08/02 06:03:23;;;;;;;6.25;3.67;;;;;;;22.63;53.87;99671.25;4910063;29;20586;-60
2022/08/02 06:05:58;;;;;;;6.28;3.40;;;;;;;22.61;54.35;99652.06;4910314;29;20070;-60
2022/08/02 06:08:30;;;;;;;6.47;4.10;;;;;;;22.84;54.88;99685.56;4910184;29;20046;-60
2022/08/02 06:11:00;;;;;;;;;;;;;;;23.00;54.99;99703.78;4910591;29;20031;-60
2022/08/02 06:13:26;;;;;;;6.25;3.75;;;;;;;22.69;53.47;99703.38;4910154;29;19907;-59
2022/08/02 06:15:54;;;;;;;8.32;3.50;;;;;;;22.88;53.09;99705.50;4923862;29;20029;-60
2022/08/02 06:18:21;;;;;;;9.15;3.65;;;;;;;23.17;53.55;99694.63;4909893;29;20118;-59
2022/08/02 06:20:49;;;;;;;9.50;3.95;;;;;;;23.19;53.55;99711.22;4909591;29;20029;-60
2022/08/02 06:23:16;;;;;;;5.65;3.60;;;;;;;23.23;52.69;99688.03;4908800;29;20029;-59
2022/08/02 06:25:46;;;;;;;7.47;4.10;;;;;;;23.43;53.00;99718.31;4909789;29;20055;-60
2022/08/02 06:28:14;;;;;;;8.60;3.33;;;;;;;23.12;51.91;99651.88;4909113;29;20059;-60
2022/08/02 06:30:41;;;;;;;9.82;3.67;;;;;;;23.31;51.74;99698.06;4909598;29;20037;-59
2022/08/02 06:33:07;;;;;;;5.55;3.63;;;;;;;23.46;52.63;99693.41;4909634;29;20032;-60
2022/08/02 06:35:43;;;;;;;5.55;3.35;;;;;;;23.21;51.24;99653.81;4909652;29;20057;-59
2022/08/02 06:38:16;;;;;;;7.80;3.80;;;;;;;23.70;51.33;99690.72;4909601;29;20036;-59
2022/08/02 06:40:54;;;;;;;5.22;3.30;;;;;;;23.79;51.04;99692.66;4909871;29;20036;-60
2022/08/02 06:43:26;;;;;;;4.40;3.55;;;;;;;23.78;50.95;99693.63;4923527;29;20031;-60
2022/08/02 06:45:51;;;;;;;8.48;3.67;;;;;;;23.42;51.70;99690.19;4915978;29;20067;-60
2022/08/02 06:48:17;;;;;;;7.80;3.65;;;;;;;23.58;51.70;99690.69;4916601;29;20044;-59
2022/08/02 06:50:43;;;;;;;9.27;3.47;;;;;;;23.80;51.28;99686.44;4909315;29;20422;-59
2022/08/02 06:53:10;;;;;;;4.75;3.80;;;;;;;23.86;50.58;99696.53;4909023;29;20366;-59
2022/08/02 06:55:35;;;;;;;6.82;3.38;;;;;;;23.92;50.29;99698.72;4913376;29;20036;-60
2022/08/02 06:58:02;;;;;;;5.35;3.10;;;;;;;23.93;50.83;99681.06;4907632;29;20089;-59
2022/08/02 07:00:30;;;;;;;4.75;3.38;;;;;;;23.92;49.55;99695.25;4909041;29;20028;-60
2022/08/02 07:02:55;;;;;;;8.95;3.28;;;;;;;24.09;49.98;99688.66;4909195;29;20021;-59
2022/08/02 07:05:22;;;;;;;10.77;3.50;;;;;;;24.24;50.92;99678.66;4922173;29;20092;-60
2022/08/02 07:07:47;;;;;;;5.20;2.83;;;;;;;24.30;49.67;99681.66;4908875;29;20040;-59
2022/08/02 07:10:14;;;;;;;6.13;2.80;;;;;;;24.24;48.97;99691.88;4909078;29;20024;-59
2022/08/02 07:12:41;;;;;;;6.90;3.17;;;;;;;24.33;49.20;99679.72;4908949;29;20064;-59
2022/08/02 07:15:08;;;;;;;3.78;2.95;;;;;;;24.22;49.51;99683.22;4909292;29;20053;-60
2022/08/02 07:17:35;;;;;;;5.82;3.00;;;;;;;24.26;49.33;99682.84;4908511;29;20028;-59
2022/08/02 07:20:01;;;;;;;5.15;2.88;;;;;;;24.08;48.19;99679.84;4908330;29;20029;-61
2022/08/02 07:22:29;;;;;;;3.50;2.90;;;;;;;24.16;48.40;99671.31;4923466;29;20056;-61
2022/08/02 07:24:57;;;;;;;8.60;2.85;;;;;;;24.35;48.92;99677.81;4908726;29;20067;-61
2022/08/02 07:27:23;;;;;;;3.42;2.92;;;;;;;24.27;46.78;99681.91;4908763;29;20036;-60
2022/08/02 07:29:49;;;;;;;6.32;3.00;;;;;;;24.37;48.21;99679.38;4906864;29;20028;-59
2022/08/02 07:32:15;;;;;;;5.75;3.15;;;;;;;24.40;47.27;99678.25;4907327;29;20356;-60
2022/08/02 07:34:41;;;;;;;3.15;2.65;;;;;;;24.55;46.93;99676.22;4907165;29;20296;-60
2022/08/02 07:37:08;;;;;;;5.13;2.88;;;;;;;24.64;48.01;99671.06;4888701;29;20028;-61
2022/08/02 07:39:33;;;;;;;5.03;3.20;;;;;;;24.83;48.08;99674.00;4901408;29;20032;-60
2022/08/02 07:41:59;;;;;;;5.85;2.80;;;;;;;24.88;47.83;99672.66;4908315;29;20080;-60
2022/08/02 07:44:24;;;;;;;5.38;2.60;;;;;;;24.91;47.39;99672.44;4907716;29;20317;-59
2022/08/02 07:46:50;;;;;;;5.55;2.80;;;;;;;24.75;45.68;99672.00;4906744;29;20329;-60
2022/08/02 07:49:17;;;;;;;4.72;2.80;;;;;;;24.59;45.90;99670.53;4908408;29;20039;-63
2022/08/02 07:51:46;;;;;;;4.90;2.55;;;;;;;24.61;45.76;99675.75;4907157;29;20119;-61
2022/08/02 07:54:12;;;;;;;6.80;2.53;;;;;;;24.67;45.45;99680.56;4910581;29;20036;-61
2022/08/02 07:56:38;;;;;;;5.65;3.10;;;;;;;24.78;45.80;99671.75;4922131;29;20091;-61
2022/08/02 07:59:04;;;;;;;5.25;2.72;;;;;;;24.91;44.81;99672.44;4923080;29;20024;-60
2022/08/02 08:01:30;;;;;;;5.72;2.60;;;;;;;24.98;46.19;99678.06;4907858;29;20037;-59
2022/08/02 08:03:56;;;;;;;4.55;2.28;;;;;;;24.93;44.15;99664.34;4907950;29;20376;-62
2022/08/02 08:06:21;;;;;;;2.20;2.00;;;;;;;24.94;43.63;99669.53;4907801;29;20039;-59
2022/08/02 08:08:47;;;;;;;3.88;2.10;;;;;;;25.14;45.18;99662.59;4907869;29;20029;-60
2022/08/02 08:11:13;;;;;;;3.42;2.45;;;;;;;25.20;45.06;99671.84;4907998;29;20221;-59
2022/08/02 08:13:38;;;;;;;2.85;2.45;;;;;;;24.90;45.45;99673.41;4908052;29;20039;-61
2022/08/02 08:16:05;;;;;;;5.68;2.90;;;;;;;24.73;44.88;99666.81;4896579;29;20036;-59
2022/08/02 08:18:31;;;;;;;3.53;2.42;;;;;;;24.56;45.19;99678.75;4906845;29;20025;-63
2022/08/02 08:20:56;;;;;;;6.70;2.40;;;;;;;24.89;45.04;99668.22;4907555;29;20043;-60
2022/08/02 08:23:23;;;;;;;4.40;2.55;;;;;;;25.14;44.13;99664.41;4922527;29;20036;-60
2022/08/02 08:25:49;;;;;;;3.10;2.60;;;;;;;25.02;44.04;99654.81;4907773;29;20028;-60
2022/08/02 08:28:15;;;;;;;3.40;2.33;;;;;;;24.84;43.12;99654.50;4907801;29;20040;-60
2022/08/02 08:30:41;;;;;;;6.28;2.65;;;;;;;25.01;43.88;99663.72;4908938;29;20032;-60
2022/08/02 08:33:07;;;;;;;3.85;2.58;;;;;;;25.19;44.33;99670.16;4919202;29;20040;-60
2022/08/02 08:35:34;;;;;;;3.08;2.42;;;;;;;25.41;43.56;99671.03;4929460;29;20029;-63
2022/08/02 08:38:00;;;;;;;3.53;2.50;;;;;;;25.31;42.79;99661.22;4916112;29;20040;-60
2022/08/02 08:40:26;;;;;;;3.50;2.28;;;;;;;25.54;44.29;99660.22;4917120;29;20035;-60
2022/08/02 08:42:52;;;;;;;3.08;2.30;;;;;;;25.35;42.83;99663.59;4914403;29;20024;-59
2022/08/02 08:45:17;;;;;;;2.80;2.30;;;;;;;25.51;43.41;99653.41;4917788;29;20197;-59
2022/08/02 08:47:46;;;;;;;2.92;2.22;;;;;;;25.65;42.33;99657.50;4910882;29;20087;-60
2022/08/02 08:50:20;;;;;;;2.38;2.15;;;;;;;25.79;42.64;99657.16;4908989;29;20039;-59
2022/08/02 08:53:05;;;;;;;4.60;2.45;;;;;;;25.75;42.65;99652.25;4908835;29;20035;-60
2022/08/02 08:55:35;;;;;;;3.58;2.10;;;;;;;25.21;41.68;99614.34;4910964;29;20307;-60
2022/08/02 08:58:03;;;;;;;7.05;2.60;;;;;;;25.82;42.30;99664.03;4915030;29;20040;-59
2022/08/02 09:00:30;;;;;;;3.28;2.67;;;;;;;25.53;40.95;99622.28;4897930;29;20024;-61
2022/08/02 09:02:57;;;;;;;2.75;2.28;;;;;;;25.87;40.81;99653.88;4916679;29;20028;-61
2022/08/02 09:05:24;;;;;;;6.68;2.10;;;;;;;25.98;40.02;99653.78;4916610;29;20012;-60
2022/08/02 09:07:51;;;;;;;3.08;2.35;;;;;;;26.05;40.88;99640.00;4916727;29;20317;-60
2022/08/02 09:10:40;;;;;;;19.75;4.03;;;;;;;25.87;41.21;99639.75;4913613;29;20143;-60
2022/08/02 09:13:10;;;;;;;8.48;3.15;;;;;;;25.94;40.94;99643.56;4900670;29;20351;-60
2022/08/02 09:15:37;;;;;;;3.72;2.10;;;;;;;25.56;40.92;99635.25;4902966;29;20033;-60
2022/08/02 09:18:05;;;;;;;2.55;2.35;;;;;;;25.46;41.32;99642.31;4911010;29;20040;-59
2022/08/02 09:20:50;;;;;;;8.30;2.60;;;;;;;25.60;40.83;99635.84;4917220;29;20322;-61
2022/08/02 09:23:17;;;;;;;11.95;3.00;;;;;;;26.05;42.39;99640.00;4919819;29;20040;-59
2022/08/02 09:25:55;;;;;;;6.57;2.40;;;;;;;25.67;40.86;99637.84;4906033;29;20091;-61
2022/08/02 09:28:26;;;;;;;5.63;2.47;;;;;;;25.25;41.83;99591.91;4905730;29;20036;-60
2022/08/02 09:30:52;;;;;;;7.67;2.77;;;;;;;25.49;41.65;99636.75;4907120;29;20039;-61
2022/08/02 09:33:25;;;;;;;5.28;2.38;;;;;;;25.28;41.53;99573.09;4907241;29;20044;-59
2022/08/02 09:36:02;;;;;;;6.55;2.58;;;;;;;25.55;42.01;99627.44;4906880;29;20120;-60
2022/08/02 09:38:28;;;;;;;5.00;3.00;;;;;;;25.48;42.21;99629.75;4906804;29;20045;-60
2022/08/02 09:40:54;;;;;;;8.07;3.30;;;;;;;25.50;42.35;99625.19;4907220;29;20039;-59
2022/08/02 09:43:21;;;;;;;30.73;4.50;;;;;;;25.68;42.72;99628.06;4904542;29;20036;-63
2022/08/02 09:45:46;;;;;;;7.75;3.10;;;;;;;25.53;42.32;99616.97;4912645;29;20028;-60
2022/08/02 09:48:12;;;;;;;7.65;3.35;;;;;;;25.49;42.58;99621.69;4917242;29;20052;-61
2022/08/02 09:50:40;;;;;;;8.93;2.65;;;;;;;25.45;42.02;99630.03;4906777;29;20320;-62
2022/08/02 09:53:12;;;;;;;5.68;3.50;;;;;;;25.30;41.80;99619.72;4906367;29;20051;-61
2022/08/02 09:55:39;;;;;;;5.57;2.97;;;;;;;25.35;41.58;99622.00;4915330;29;20152;-60
2022/08/02 09:58:19;;;;;;;7.85;3.22;;;;;;;25.18;43.15;99604.84;4916555;29;20029;-59
2022/08/02 10:00:55;;;;;;;4.57;3.10;;;;;;;25.21;42.51;99625.81;4920898;29;20031;-60
2022/08/02 10:03:21;;;;;;;7.10;3.45;;;;;;;25.22;42.83;99626.63;4918654;29;20024;-59
2022/08/02 10:05:57;;;;;;;6.78;3.50;;;;;;;24.95;41.64;99597.00;4920646;29;20050;-59
2022/08/02 10:08:24;;;;;;;4.82;3.03;;;;;;;24.80;41.44;99591.19;4923593;29;20039;-59
2022/08/02 10:10:59;;;;;;;6.28;3.63;;;;;;;25.00;41.61;99625.78;4920351;29;20032;-59
2022/08/02 10:13:33;;;;;;;6.30;3.15;;;;;;;24.77;41.26;99591.44;4914646;29;20024;-61
2022/08/02 10:16:01;;;;;;;5.32;3.78;;;;;;;25.24;41.23;99619.38;4908948;29;20215;-62
2022/08/02 10:18:28;;;;;;;4.43;3.50;;;;;;;25.16;41.00;99625.34;4899749;29;20261;-62
2022/08/02 10:20:55;;;;;;;4.63;3.30;;;;;;;25.24;40.99;99620.25;4909957;29;20029;-62
2022/08/02 10:23:25;;;;;;;6.30;4.05;;;;;;;25.30;42.40;99624.19;4924407;29;20028;-62
2022/08/02 10:25:53;;;;;;;5.18;3.10;;;;;;;25.02;41.20;99573.47;4908651;29;20058;-60
2022/08/02 10:28:27;;;;;;;5.07;3.40;;;;;;;25.14;41.75;99591.03;4909725;29;20033;-61
2022/08/02 10:30:55;;;;;;;7.22;3.47;;;;;;;24.97;41.71;99603.03;4910125;29;20321;-61
2022/08/02 10:33:25;;;;;;;3.65;3.00;;;;;;;25.07;40.94;99613.72;4909901;29;20071;-63
2022/08/02 10:35:56;;;;;;;4.07;2.85;;;;;;;25.09;41.20;99584.41;4910462;29;20336;-61
2022/08/02 10:38:23;;;;;;;4.30;3.05;;;;;;;25.20;40.89;99615.31;4909916;29;20040;-62
2022/08/02 10:40:53;;;;;;;3.55;3.25;;;;;;;25.09;41.13;99573.81;4908565;29;20071;-62
2022/08/02 10:43:31;;;;;;;5.30;3.60;;;;;;;25.40;41.66;99613.69;4909801;29;20107;-61
2022/08/02 10:46:20;;;;;;;3.97;3.28;;;;;;;25.11;40.57;99619.56;4917018;29;20321;-62
2022/08/02 10:49:06;;;;;;;6.05;3.58;;;;;;;25.08;40.84;99574.78;4916171;29;20107;-61
2022/08/02 10:51:56;;;;;;;4.15;3.75;;;;;;;25.41;41.14;99615.34;4909433;29;20049;-61
2022/08/02 10:54:35;;;;;;;4.63;3.50;;;;;;;25.16;41.20;99574.97;4910092;29;20063;-61
2022/08/02 10:57:02;;;;;;;4.78;3.13;;;;;;;25.24;40.50;99617.59;4921891;29;20040;-64
2022/08/02 10:59:30;;;;;;;4.93;3.67;;;;;;;25.17;40.89;99611.13;4908514;29;20312;-62
2022/08/02 11:02:03;;;;;;;5.63;3.03;;;;;;;25.29;41.21;99594.16;4909041;29;20059;-61
2022/08/02 11:04:54;;;;;;;3.83;3.10;;;;;;;25.52;41.25;99599.38;4910437;29;20114;-61
2022/08/02 11:07:31;;;;;;;5.00;3.10;;;;;;;25.71;41.00;99603.09;4918453;29;20038;-61
2022/08/02 11:09:59;;;;;;;4.28;2.83;;;;;;;25.69;39.50;99586.47;4915500;29;20036;-59
2022/08/02 11:12:26;;;;;;;5.40;3.00;;;;;;;25.94;40.27;99596.63;4930874;29;20072;-61
2022/08/02 11:14:59;;;;;;;7.45;3.30;;;;;;;26.06;41.24;99591.25;4917398;29;20031;-61
2022/08/02 11:17:27;;;;;;;4.55;3.10;;;;;;;26.12;41.13;99585.41;4907020;29;20033;-62
2022/08/02 11:20:11;;;;;;;4.80;3.42;;;;;;;25.92;39.64;99593.25;4908216;29;20092;-60
2022/08/02 11:22:41;;;;;;;7.78;3.28;;;;;;;26.00;39.49;99590.81;4907846;29;20324;-61
2022/08/02 11:25:24;;;;;;;6.30;2.60;;;;;;;25.84;39.43;99598.41;4907799;29;20076;-63
2022/08/02 11:27:56;;;;;;;5.28;2.70;;;;;;;25.67;39.87;99560.91;4909117;29;20088;-62
2022/08/02 11:30:24;;;;;;;4.20;2.80;;;;;;;25.79;40.30;99597.97;4908756;29;20029;-62
2022/08/02 11:32:50;;;;;;;4.43;2.88;;;;;;;25.87;40.07;99591.97;4908807;29;20033;-62
2022/08/02 11:35:15;;;;;;;4.75;2.78;;;;;;;25.77;39.47;99591.97;4908918;29;20032;-61
2022/08/02 11:37:43;;;;;;;3.70;2.75;;;;;;;25.89;39.59;99604.16;4908617;29;20024;-60
2022/08/02 11:40:17;;;;;;;6.03;2.65;;;;;;;25.98;40.09;99597.19;4907872;29;20041;-63
2022/08/02 11:42:46;;;;;;;10.30;2.83;;;;;;;25.87;40.03;99584.88;4908650;29;20033;-63